createdAt,value
2022-09-29T00:02:07.596Z,1.30
2022-09-29T00:04:34.236Z,2.05
2022-09-29T00:07:00.759Z,1.27
2022-09-29T00:09:27.348Z,1.60
2022-09-29T00:11:55.763Z,1.92
2022-09-29T00:14:23.302Z,1.38
2022-09-29T00:16:50.611Z,1.58
2022-09-29T00:19:17.342Z,1.00
2022-09-29T00:21:43.879Z,1.05
2022-09-29T00:24:10.322Z,1.00
2022-09-29T00:26:36.869Z,3.58
2022-09-29T00:29:03.529Z,1.25
2022-09-29T00:31:32.286Z,2.72
2022-09-29T00:33:59.196Z,1.27
2022-09-29T00:36:29.509Z,1.20
2022-09-29T00:38:56.507Z,2.13
2022-09-29T00:41:29.133Z,3.60
2022-09-29T00:44:05.908Z,1.63
2022-09-29T00:46:53.593Z,1.85
2022-09-29T00:49:27.034Z,1.95
2022-09-29T00:51:59.255Z,1.02
2022-09-29T00:54:33.016Z,1.20
2022-09-29T00:57:02.567Z,1.23
2022-09-29T00:59:53.840Z,1.67
2022-09-29T01:02:22.174Z,1.25
2022-09-29T01:04:52.001Z,1.63
2022-09-29T01:07:21.692Z,1.80
2022-09-29T01:09:50.916Z,0.88
2022-09-29T01:12:17.889Z,1.07
2022-09-29T01:14:45.059Z,1.45
2022-09-29T01:17:11.567Z,1.52
2022-09-29T01:20:00.725Z,1.17
2022-09-29T01:23:00.701Z,1.38
2022-09-29T01:25:33.090Z,5.10
2022-09-29T01:28:11.584Z,1.23
2022-09-29T01:30:57.711Z,1.40
2022-09-29T01:33:52.614Z,1.58
2022-09-29T01:36:28.081Z,2.75
2022-09-29T01:39:16.322Z,3.92
2022-09-29T01:42:08.664Z,2.95
2022-09-29T01:44:42.646Z,6.95
2022-09-29T01:47:21.544Z,4.75
2022-09-29T01:49:56.001Z,3.80
2022-09-29T01:52:27.078Z,4.22
2022-09-29T01:55:06.051Z,1.65
2022-09-29T01:57:47.815Z,1.60
2022-09-29T02:00:17.594Z,1.98
2022-09-29T02:03:04.264Z,2.10
2022-09-29T02:05:36.665Z,2.65
2022-09-29T02:08:14.960Z,3.28
2022-09-29T02:10:50.165Z,1.90
2022-09-29T02:13:18.639Z,2.33
2022-09-29T02:15:48.369Z,2.30
2022-09-29T02:18:21.904Z,3.08
2022-09-29T02:20:50.611Z,3.08
2022-09-29T02:23:18.139Z,2.15
2022-09-29T02:25:48.575Z,3.28
2022-09-29T02:28:16.389Z,3.78
2022-09-29T02:30:42.975Z,5.45
2022-09-29T02:33:23.527Z,7.90
2022-09-29T02:36:13.635Z,8.65
2022-09-29T02:44:12.906Z,5.05
2022-09-29T02:46:58.249Z,5.53
2022-09-29T02:49:46.011Z,2.67
2022-09-29T02:52:16.194Z,25.13
2022-09-29T02:55:10.842Z,5.50
2022-09-29T02:57:53.517Z,2.47
2022-09-29T03:00:21.039Z,4.32
2022-09-29T03:02:47.648Z,3.75
2022-09-29T03:05:23.923Z,9.02
2022-09-29T03:07:50.480Z,8.55
2022-09-29T03:10:18.109Z,2.20
2022-09-29T03:12:44.997Z,2.13
2022-09-29T03:15:12.603Z,3.03
2022-09-29T03:17:40.396Z,12.27
2022-09-29T03:20:08.203Z,6.20
2022-09-29T03:22:34.705Z,3.17
2022-09-29T03:25:01.365Z,6.55
2022-09-29T03:27:27.892Z,7.50
2022-09-29T03:29:54.403Z,18.30
2022-09-29T03:32:20.922Z,1.73
2022-09-29T03:34:47.439Z,1.27
2022-09-29T03:37:14.004Z,4.57
2022-09-29T03:39:40.701Z,2.97
2022-09-29T03:42:07.418Z,6.47
2022-09-29T03:44:33.895Z,5.18
2022-09-29T03:47:00.840Z,6.07
2022-09-29T03:49:27.338Z,3.45
2022-09-29T03:51:53.857Z,11.63
2022-09-29T03:54:20.325Z,11.38
2022-09-29T03:56:46.814Z,13.80
2022-09-29T03:59:15.156Z,9.85
2022-09-29T04:01:41.802Z,17.25
2022-09-29T04:04:09.759Z,2.42
2022-09-29T04:06:36.479Z,3.25
2022-09-29T04:09:03.630Z,7.00
2022-09-29T04:11:30.133Z,4.70
2022-09-29T04:13:56.640Z,7.13
2022-09-29T04:16:23.164Z,5.10
2022-09-29T04:18:49.643Z,2.10
2022-09-29T04:21:16.820Z,6.63
2022-09-29T04:23:43.273Z,1.88
2022-09-29T04:26:09.905Z,1.52
2022-09-29T04:28:37.234Z,1.83
2022-09-29T04:31:03.956Z,2.67
2022-09-29T04:33:31.301Z,2.00
2022-09-29T04:35:59.441Z,4.85
2022-09-29T04:38:26.188Z,5.07
2022-09-29T04:40:52.889Z,1.42
2022-09-29T04:43:19.620Z,1.30
2022-09-29T04:45:46.162Z,2.13
2022-09-29T04:48:12.767Z,1.95
2022-09-29T04:50:39.420Z,2.08
2022-09-29T04:53:07.678Z,3.75
2022-09-29T04:55:34.156Z,9.05
2022-09-29T04:58:00.955Z,8.98
2022-09-29T05:00:27.453Z,11.05
2022-09-29T05:02:53.900Z,6.38
2022-09-29T05:05:20.368Z,4.55
2022-09-29T05:07:48.179Z,3.00
2022-09-29T05:10:14.680Z,3.08
2022-09-29T05:12:41.200Z,3.92
2022-09-29T05:15:08.399Z,3.03
2022-09-29T05:17:34.964Z,3.22
2022-09-29T05:20:01.711Z,3.67
2022-09-29T05:22:28.193Z,5.35
2022-09-29T05:24:54.741Z,3.53
2022-09-29T05:27:22.359Z,4.10
2022-09-29T05:29:49.302Z,4.32
2022-09-29T05:32:15.917Z,3.78
2022-09-29T05:34:42.449Z,3.67
2022-09-29T05:37:11.953Z,2.95
2022-09-29T05:39:39.698Z,2.88
2022-09-29T05:42:11.307Z,3.05
2022-09-29T05:44:42.279Z,5.07
2022-09-29T05:48:00.820Z,2.13
2022-09-29T05:50:54.127Z,1.80
2022-09-29T05:53:20.611Z,2.58
2022-09-29T05:55:47.066Z,2.20
2022-09-29T05:58:13.944Z,1.90
2022-09-29T06:00:40.431Z,3.55
2022-09-29T06:03:06.973Z,6.70
2022-09-29T06:05:33.515Z,6.22
2022-09-29T06:08:03.932Z,29.05
2022-09-29T06:10:30.449Z,17.17
2022-09-29T06:12:57.221Z,5.35
2022-09-29T06:15:24.270Z,3.25
2022-09-29T06:17:56.650Z,3.85
2022-09-29T06:20:23.593Z,2.38
2022-09-29T06:22:51.605Z,2.20
2022-09-29T06:25:18.111Z,2.08
2022-09-29T06:27:44.569Z,2.25
2022-09-29T06:30:13.181Z,1.92
2022-09-29T06:32:40.795Z,1.73
2022-09-29T06:35:26.050Z,6.22
2022-09-29T06:37:56.460Z,8.43
2022-09-29T06:40:23.796Z,3.90
2022-09-29T06:42:50.355Z,2.50
2022-09-29T06:45:20.306Z,2.08
2022-09-29T06:47:48.562Z,2.13
2022-09-29T06:50:19.741Z,1.90
2022-09-29T06:52:56.378Z,1.70
2022-09-29T06:55:25.293Z,2.08
2022-09-29T06:57:51.777Z,1.88
2022-09-29T07:00:18.271Z,2.22
2022-09-29T07:02:47.766Z,2.13
2022-09-29T07:05:14.496Z,1.90
2022-09-29T07:07:40.952Z,1.80
2022-09-29T07:10:07.914Z,1.90
2022-09-29T07:12:34.412Z,2.58
2022-09-29T07:15:01.107Z,2.17
2022-09-29T07:17:27.587Z,2.13
2022-09-29T07:19:56.004Z,2.80
2022-09-29T07:22:22.526Z,2.20
2022-09-29T07:24:50.959Z,1.70
2022-09-29T07:27:23.459Z,2.17
2022-09-29T07:30:02.753Z,2.10
2022-09-29T07:34:59.975Z,1.60
2022-09-29T07:37:30.453Z,4.10
2022-09-29T07:39:57.185Z,3.65
2022-09-29T07:42:23.887Z,1.90
2022-09-29T07:44:52.517Z,3.35
2022-09-29T07:47:19.437Z,2.40
2022-09-29T07:49:46.347Z,2.65
2022-09-29T07:52:14.114Z,3.30
2022-09-29T07:54:40.715Z,3.45
2022-09-29T07:57:10.014Z,3.47
2022-09-29T07:59:36.494Z,3.70
2022-09-29T08:02:04.359Z,4.45
2022-09-29T08:04:31.267Z,4.40
2022-09-29T08:06:57.735Z,4.50
2022-09-29T08:09:38.043Z,4.65
2022-09-29T08:12:08.367Z,4.32
2022-09-29T08:14:35.519Z,5.43
2022-09-29T08:17:02.076Z,4.28
2022-09-29T08:19:28.708Z,3.65
2022-09-29T08:21:55.191Z,4.55
2022-09-29T08:24:21.707Z,3.28
2022-09-29T08:26:48.193Z,2.92
2022-09-29T08:29:17.130Z,4.88
2022-09-29T08:31:44.858Z,7.50
2022-09-29T08:34:11.478Z,13.52
2022-09-29T08:36:37.960Z,29.25
2022-09-29T08:39:05.122Z,7.55
2022-09-29T08:41:52.252Z,5.10
2022-09-29T08:44:40.732Z,3.20
2022-09-29T08:47:44.438Z,12.30
2022-09-29T08:50:27.012Z,7.97
2022-09-29T08:52:59.515Z,5.72
2022-09-29T08:55:42.128Z,18.13
2022-09-29T08:58:13.088Z,20.98
2022-09-29T09:00:45.354Z,7.45
2022-09-29T09:03:23.424Z,2.92
2022-09-29T09:06:21.400Z,1.80
2022-09-29T09:08:47.992Z,5.18
2022-09-29T09:11:41.734Z,1.00
2022-09-29T09:14:30.110Z,1.00
2022-09-29T09:17:25.605Z,1.35
2022-09-29T09:28:20.754Z,0.70
2022-09-29T09:30:58.439Z,0.50
2022-09-29T09:33:37.212Z,1.27
2022-09-29T09:46:45.454Z,1.00
2022-09-29T09:49:17.649Z,0.55
2022-09-29T10:06:50.605Z,0.77
2022-09-29T10:09:17.366Z,0.50
2022-09-29T10:11:44.377Z,0.40
2022-09-29T10:14:26.395Z,1.15
2022-09-29T10:17:01.565Z,0.88
2022-09-29T10:19:55.801Z,0.70
2022-09-29T10:22:22.456Z,0.60
2022-09-29T10:24:57.666Z,0.77
2022-09-29T10:27:28.431Z,0.75
2022-09-29T10:29:56.952Z,0.77
2022-09-29T10:32:36.597Z,1.83
2022-09-29T10:35:26.305Z,0.80
2022-09-29T10:38:17.717Z,1.85
2022-09-29T10:41:03.381Z,1.00
2022-09-29T10:43:40.119Z,1.83
2022-09-29T10:46:26.754Z,1.15
2022-09-29T10:49:13.889Z,1.38
2022-09-29T10:51:53.589Z,2.08
2022-09-29T10:54:25.631Z,2.70
2022-09-29T10:56:52.921Z,1.40
2022-09-29T10:59:19.751Z,1.20
2022-09-29T11:01:50.380Z,2.83
2022-09-29T11:04:22.540Z,1.58
2022-09-29T11:06:49.854Z,1.63
2022-09-29T11:09:16.289Z,1.60
2022-09-29T11:11:48.985Z,6.07
2022-09-29T11:14:27.286Z,1.83
2022-09-29T11:16:56.507Z,2.13
2022-09-29T11:19:23.808Z,1.63
2022-09-29T12:48:25.812Z,1.67
2022-09-29T12:51:10.363Z,1.33
2022-09-29T12:54:03.236Z,3.75
2022-09-29T12:56:37.097Z,2.78
2022-09-29T12:59:13.313Z,2.97
2022-09-29T13:01:40.674Z,3.17
2022-09-29T13:04:14.704Z,1.55
2022-09-29T13:07:10.082Z,1.95
2022-09-29T13:10:01.386Z,1.65
2022-09-29T13:12:40.403Z,1.25
2022-09-29T13:15:53.461Z,1.48
2022-09-29T13:18:29.881Z,2.03
2022-09-29T13:21:40.504Z,6.13
2022-09-29T13:24:21.388Z,2.15
2022-09-29T13:27:32.778Z,1.52
2022-09-29T13:30:11.279Z,1.27
2022-09-29T13:32:44.159Z,1.63
2022-09-29T13:35:17.203Z,1.35
2022-09-29T13:37:56.372Z,2.30
2022-09-29T13:40:25.961Z,1.33
2022-09-29T13:42:58.143Z,1.50
2022-09-29T13:45:29.201Z,1.63
2022-09-29T13:48:01.848Z,1.52
2022-09-29T13:50:44.161Z,2.28
2022-09-29T13:53:37.516Z,1.50
2022-09-29T13:56:04.232Z,2.20
2022-09-29T13:58:34.230Z,2.22
2022-09-29T14:03:36.654Z,3.03
2022-09-29T14:06:22.593Z,3.10
2022-09-29T14:09:05.575Z,1.48
2022-09-29T14:11:34.898Z,1.80
2022-09-29T14:14:21.270Z,2.80
2022-09-29T14:17:12.050Z,1.73
2022-09-29T14:20:06.083Z,2.75
2022-09-29T14:22:38.452Z,3.58
2022-09-29T14:25:10.996Z,1.40
2022-09-29T14:27:49.285Z,1.73
2022-09-29T14:30:37.046Z,2.65
2022-09-29T14:33:11.906Z,3.33
2022-09-29T14:35:44.665Z,2.97
2022-09-29T14:38:27.660Z,2.20
2022-09-29T14:40:58.366Z,3.63
2022-09-29T14:43:36.867Z,3.40
2022-09-29T14:46:25.124Z,2.25
2022-09-29T14:49:10.271Z,1.95
2022-09-29T14:51:59.157Z,1.70
2022-09-29T14:54:48.515Z,4.68
2022-09-29T14:57:49.648Z,9.82
2022-09-29T15:00:19.159Z,9.02
2022-09-29T15:02:59.800Z,11.90
2022-09-29T15:05:33.714Z,15.02
2022-09-29T15:08:02.360Z,12.00
2022-09-29T15:10:31.842Z,8.10
2022-09-29T15:13:31.401Z,5.13
2022-09-29T15:16:05.383Z,3.63
2022-09-29T15:19:01.401Z,2.97
2022-09-29T15:21:49.722Z,2.90
2022-09-29T15:24:30.179Z,3.80
2022-09-29T16:40:56.826Z,5.43
2022-09-29T16:43:27.993Z,10.45
2022-09-29T16:45:57.103Z,16.45
2022-09-29T16:48:25.862Z,16.27
2022-09-29T16:50:59.030Z,21.15
2022-09-29T16:53:33.580Z,18.25
2022-09-29T17:50:56.541Z,10.75
2022-09-29T17:53:25.380Z,8.65
2022-09-29T17:55:57.138Z,8.45
2022-09-29T17:58:24.455Z,9.30
2022-09-29T18:00:53.959Z,13.70
2022-09-29T18:03:22.136Z,14.00
2022-09-29T18:05:55.980Z,11.57
2022-09-29T18:08:25.401Z,11.40
2022-09-29T18:10:59.617Z,12.68
2022-09-29T18:13:27.875Z,13.20
2022-09-29T18:15:55.757Z,13.52
2022-09-29T18:18:23.370Z,11.95
2022-09-29T18:20:50.764Z,13.52
2022-09-29T18:23:23.118Z,16.55
2022-09-29T18:25:51.476Z,14.85
2022-09-29T18:28:18.840Z,16.75
2022-09-29T18:30:52.294Z,13.23
2022-09-29T18:33:20.235Z,14.23
2022-09-29T18:35:53.635Z,12.68
2022-09-29T18:38:20.920Z,11.63
2022-09-29T18:40:48.692Z,9.02
2022-09-29T18:43:15.346Z,9.52
2022-09-29T18:45:43.665Z,9.55
2022-09-29T18:48:14.900Z,9.73
2022-09-29T18:50:46.710Z,11.15
2022-09-29T18:53:16.269Z,12.07
2022-09-29T18:55:42.826Z,9.48
2022-09-29T18:58:12.834Z,9.15
2022-09-29T19:00:43.397Z,9.65
2022-09-29T19:03:09.880Z,8.40
2022-09-29T19:05:40.282Z,14.38
2022-09-29T19:08:06.841Z,11.45
2022-09-29T19:10:36.475Z,8.90
2022-09-29T19:13:08.025Z,9.30
2022-09-29T19:15:39.360Z,10.38
2022-09-29T19:18:07.499Z,11.38
2022-09-29T19:20:35.065Z,10.73
2022-09-29T19:23:05.626Z,9.25
2022-09-29T19:33:00.424Z,11.10
2022-09-29T19:35:28.979Z,10.00
2022-09-29T19:37:58.096Z,9.93
2022-09-29T19:40:28.501Z,10.73
2022-09-29T19:42:55.265Z,11.43
2022-09-29T19:45:22.105Z,10.80
2022-09-29T19:47:53.340Z,10.27
2022-09-29T19:50:39.323Z,10.65
2022-09-29T19:53:06.006Z,10.68
2022-09-29T19:55:32.630Z,12.73
2022-09-29T19:57:59.481Z,11.52
2022-09-29T20:00:26.006Z,10.82
2022-09-29T20:02:53.604Z,11.60
2022-09-29T20:05:20.277Z,11.98
2022-09-29T20:07:46.878Z,11.10
2022-09-29T20:10:16.489Z,11.30
2022-09-29T20:12:43.582Z,11.48
2022-09-29T20:15:13.672Z,11.00
2022-09-29T20:20:10.099Z,10.68
2022-09-29T20:22:36.942Z,12.53
2022-09-29T20:25:05.323Z,11.57
2022-09-29T20:27:31.904Z,12.10
2022-09-29T20:29:58.464Z,12.07
2022-09-29T20:32:25.110Z,12.18
2022-09-29T20:34:51.606Z,12.55
2022-09-29T20:37:18.066Z,13.35
2022-09-29T20:39:44.590Z,12.25
2022-09-29T20:42:11.850Z,13.50
2022-09-29T20:44:38.337Z,12.30
2022-09-29T20:47:06.028Z,12.10
2022-09-29T20:49:32.629Z,12.45
2022-09-29T20:51:59.377Z,12.73
2022-09-29T20:54:26.042Z,12.02
2022-09-29T20:56:53.640Z,12.40
2022-09-29T20:59:23.160Z,10.63
2022-09-29T21:01:52.249Z,14.60
2022-09-29T21:04:21.006Z,11.80
2022-09-29T21:06:49.764Z,11.40
2022-09-29T21:09:19.850Z,13.20
2022-09-29T21:11:47.318Z,10.05
2022-09-29T21:14:19.539Z,11.52
2022-09-29T21:16:51.243Z,11.70
2022-09-29T21:19:19.332Z,13.70
